sensor_id;sensor_type;location;lat;lon;timestamp;P1;durP1;ratioP1;P2;durP2;ratioP2
58017;SDS011;43810;50.860;19.226;2023-06-05T00:00:17;4.95;;;2.53;;
58017;SDS011;43810;50.860;19.226;2023-06-05T00:03:03;5.35;;;2.60;;
58017;SDS011;43810;50.860;19.226;2023-06-05T00:05:29;4.40;;;2.30;;
58017;SDS011;43810;50.860;19.226;2023-06-05T00:07:56;2.88;;;2.17;;
58017;SDS011;43810;50.860;19.226;2023-06-05T00:10:23;6.22;;;3.08;;
58017;SDS011;43810;50.860;19.226;2023-06-05T00:12:49;5.72;;;2.55;;
58017;SDS011;43810;50.860;19.226;2023-06-05T00:15:15;5.28;;;2.70;;
58017;SDS011;43810;50.860;19.226;2023-06-05T00:17:41;6.03;;;3.25;;
58017;SDS011;43810;50.860;19.226;2023-06-05T00:20:07;6.13;;;2.83;;
58017;SDS011;43810;50.860;19.226;2023-06-05T00:22:36;6.63;;;2.53;;
58017;SDS011;43810;50.860;19.226;2023-06-05T00:25:03;4.03;;;2.10;;
58017;SDS011;43810;50.860;19.226;2023-06-05T00:27:29;2.83;;;2.53;;
58017;SDS011;43810;50.860;19.226;2023-06-05T00:29:55;4.93;;;2.70;;
58017;SDS011;43810;50.860;19.226;2023-06-05T00:32:21;4.68;;;2.40;;
58017;SDS011;43810;50.860;19.226;2023-06-05T00:34:47;4.18;;;3.05;;
58017;SDS011;43810;50.860;19.226;2023-06-05T00:37:15;5.13;;;2.40;;
58017;SDS011;43810;50.860;19.226;2023-06-05T00:39:41;4.68;;;2.60;;
58017;SDS011;43810;50.860;19.226;2023-06-05T00:42:07;4.25;;;2.60;;
58017;SDS011;43810;50.860;19.226;2023-06-05T00:44:36;5.25;;;2.78;;
58017;SDS011;43810;50.860;19.226;2023-06-05T00:47:02;6.18;;;3.15;;
58017;SDS011;43810;50.860;19.226;2023-06-05T00:49:30;5.28;;;3.00;;
58017;SDS011;43810;50.860;19.226;2023-06-05T00:51:56;5.63;;;2.80;;
58017;SDS011;43810;50.860;19.226;2023-06-05T00:54:23;6.32;;;2.63;;
58017;SDS011;43810;50.860;19.226;2023-06-05T00:56:50;4.70;;;2.40;;
58017;SDS011;43810;50.860;19.226;2023-06-05T00:59:18;5.07;;;2.88;;
58017;SDS011;43810;50.860;19.226;2023-06-05T01:01:44;6.95;;;3.00;;
58017;SDS011;43810;50.860;19.226;2023-06-05T01:04:11;7.07;;;2.95;;
58017;SDS011;43810;50.860;19.226;2023-06-05T01:06:36;5.13;;;3.13;;
58017;SDS011;43810;50.860;19.226;2023-06-05T01:09:09;5.57;;;2.57;;
58017;SDS011;43810;50.860;19.226;2023-06-05T01:14:14;4.68;;;2.70;;
58017;SDS011;43810;50.860;19.226;2023-06-05T01:16:47;4.90;;;3.10;;
58017;SDS011;43810;50.860;19.226;2023-06-05T01:19:22;4.30;;;2.80;;
58017;SDS011;43810;50.860;19.226;2023-06-05T01:21:50;6.32;;;3.15;;
58017;SDS011;43810;50.860;19.226;2023-06-05T01:24:19;8.18;;;3.10;;
58017;SDS011;43810;50.860;19.226;2023-06-05T01:32:14;3.95;;;2.75;;
58017;SDS011;43810;50.860;19.226;2023-06-05T01:34:44;5.38;;;2.97;;
58017;SDS011;43810;50.860;19.226;2023-06-05T01:37:13;5.53;;;3.03;;
58017;SDS011;43810;50.860;19.226;2023-06-05T01:39:44;5.70;;;3.47;;
58017;SDS011;43810;50.860;19.226;2023-06-05T01:42:12;6.70;;;3.22;;
58017;SDS011;43810;50.860;19.226;2023-06-05T01:44:39;6.43;;;2.95;;
58017;SDS011;43810;50.860;19.226;2023-06-05T01:47:06;5.43;;;3.35;;
58017;SDS011;43810;50.860;19.226;2023-06-05T01:49:33;5.22;;;3.35;;
58017;SDS011;43810;50.860;19.226;2023-06-05T01:52:00;5.25;;;3.13;;
58017;SDS011;43810;50.860;19.226;2023-06-05T01:54:26;5.35;;;3.00;;
58017;SDS011;43810;50.860;19.226;2023-06-05T01:56:52;5.53;;;3.25;;
58017;SDS011;43810;50.860;19.226;2023-06-05T01:59:19;5.60;;;3.35;;
58017;SDS011;43810;50.860;19.226;2023-06-05T02:01:45;5.20;;;3.10;;
58017;SDS011;43810;50.860;19.226;2023-06-05T02:04:12;5.00;;;3.03;;
58017;SDS011;43810;50.860;19.226;2023-06-05T02:06:41;4.70;;;2.95;;
58017;SDS011;43810;50.860;19.226;2023-06-05T02:09:08;4.70;;;3.15;;
58017;SDS011;43810;50.860;19.226;2023-06-05T02:11:38;5.13;;;3.53;;
58017;SDS011;43810;50.860;19.226;2023-06-05T02:14:05;4.13;;;3.60;;
58017;SDS011;43810;50.860;19.226;2023-06-05T02:16:37;6.22;;;3.13;;
58017;SDS011;43810;50.860;19.226;2023-06-05T02:19:03;7.47;;;3.83;;
58017;SDS011;43810;50.860;19.226;2023-06-05T02:21:30;6.82;;;3.03;;
58017;SDS011;43810;50.860;19.226;2023-06-05T02:23:58;5.50;;;3.47;;
58017;SDS011;43810;50.860;19.226;2023-06-05T02:26:24;7.00;;;3.40;;
58017;SDS011;43810;50.860;19.226;2023-06-05T02:28:51;5.13;;;3.00;;
58017;SDS011;43810;50.860;19.226;2023-06-05T02:31:25;6.22;;;3.03;;
58017;SDS011;43810;50.860;19.226;2023-06-05T02:33:52;5.53;;;3.08;;
58017;SDS011;43810;50.860;19.226;2023-06-05T02:36:19;8.02;;;4.18;;
58017;SDS011;43810;50.860;19.226;2023-06-05T02:38:45;5.95;;;3.70;;
58017;SDS011;43810;50.860;19.226;2023-06-05T02:41:11;4.88;;;3.30;;
58017;SDS011;43810;50.860;19.226;2023-06-05T02:43:37;7.57;;;3.83;;
58017;SDS011;43810;50.860;19.226;2023-06-05T02:46:03;5.32;;;3.60;;
58017;SDS011;43810;50.860;19.226;2023-06-05T02:48:29;6.65;;;3.60;;
58017;SDS011;43810;50.860;19.226;2023-06-05T02:50:54;7.57;;;3.53;;
58017;SDS011;43810;50.860;19.226;2023-06-05T02:53:20;5.13;;;3.60;;
58017;SDS011;43810;50.860;19.226;2023-06-05T02:55:46;6.88;;;3.97;;
58017;SDS011;43810;50.860;19.226;2023-06-05T02:58:13;8.70;;;4.28;;
58017;SDS011;43810;50.860;19.226;2023-06-05T03:00:41;6.22;;;4.68;;
58017;SDS011;43810;50.860;19.226;2023-06-05T03:03:07;9.40;;;4.25;;
58017;SDS011;43810;50.860;19.226;2023-06-05T03:05:32;6.38;;;4.30;;
58017;SDS011;43810;50.860;19.226;2023-06-05T03:07:59;12.93;;;5.13;;
58017;SDS011;43810;50.860;19.226;2023-06-05T03:10:26;8.45;;;5.35;;
58017;SDS011;43810;50.860;19.226;2023-06-05T03:12:53;8.43;;;6.03;;
58017;SDS011;43810;50.860;19.226;2023-06-05T03:15:19;9.20;;;6.18;;
58017;SDS011;43810;50.860;19.226;2023-06-05T03:17:45;9.52;;;7.03;;
58017;SDS011;43810;50.860;19.226;2023-06-05T03:20:11;9.80;;;7.28;;
58017;SDS011;43810;50.860;19.226;2023-06-05T03:22:38;9.55;;;7.43;;
58017;SDS011;43810;50.860;19.226;2023-06-05T03:25:04;13.48;;;8.50;;
58017;SDS011;43810;50.860;19.226;2023-06-05T03:27:31;11.15;;;7.95;;
58017;SDS011;43810;50.860;19.226;2023-06-05T03:29:57;11.18;;;8.15;;
58017;SDS011;43810;50.860;19.226;2023-06-05T03:32:24;10.35;;;7.18;;
58017;SDS011;43810;50.860;19.226;2023-06-05T03:34:50;8.93;;;6.90;;
58017;SDS011;43810;50.860;19.226;2023-06-05T03:37:16;10.43;;;5.50;;
58017;SDS011;43810;50.860;19.226;2023-06-05T03:39:41;8.55;;;5.30;;
58017;SDS011;43810;50.860;19.226;2023-06-05T03:42:08;7.60;;;5.13;;
58017;SDS011;43810;50.860;19.226;2023-06-05T03:44:36;8.88;;;5.30;;
58017;SDS011;43810;50.860;19.226;2023-06-05T03:47:03;7.25;;;5.13;;
58017;SDS011;43810;50.860;19.226;2023-06-05T03:49:29;8.27;;;5.75;;
58017;SDS011;43810;50.860;19.226;2023-06-05T03:51:55;6.45;;;5.07;;
58017;SDS011;43810;50.860;19.226;2023-06-05T03:54:26;7.43;;;5.55;;
58017;SDS011;43810;50.860;19.226;2023-06-05T03:56:54;8.23;;;5.20;;
58017;SDS011;43810;50.860;19.226;2023-06-05T03:59:21;7.35;;;4.60;;
58017;SDS011;43810;50.860;19.226;2023-06-05T04:01:49;7.55;;;4.57;;
58017;SDS011;43810;50.860;19.226;2023-06-05T04:04:15;7.25;;;4.72;;
58017;SDS011;43810;50.860;19.226;2023-06-05T04:06:42;6.28;;;4.30;;
58017;SDS011;43810;50.860;19.226;2023-06-05T04:09:09;6.28;;;4.15;;
58017;SDS011;43810;50.860;19.226;2023-06-05T04:14:08;7.65;;;4.03;;
58017;SDS011;43810;50.860;19.226;2023-06-05T04:16:36;5.22;;;3.53;;
58017;SDS011;43810;50.860;19.226;2023-06-05T04:19:04;6.20;;;4.45;;
58017;SDS011;43810;50.860;19.226;2023-06-05T04:21:32;6.18;;;4.00;;
58017;SDS011;43810;50.860;19.226;2023-06-05T04:24:01;7.57;;;3.65;;
58017;SDS011;43810;50.860;19.226;2023-06-05T04:26:33;4.32;;;2.92;;
58017;SDS011;43810;50.860;19.226;2023-06-05T04:28:59;6.82;;;3.83;;
58017;SDS011;43810;50.860;19.226;2023-06-05T04:31:30;5.15;;;3.17;;
58017;SDS011;43810;50.860;19.226;2023-06-05T04:33:56;6.43;;;4.03;;
58017;SDS011;43810;50.860;19.226;2023-06-05T04:36:22;7.65;;;3.58;;
58017;SDS011;43810;50.860;19.226;2023-06-05T04:38:48;6.10;;;3.72;;
58017;SDS011;43810;50.860;19.226;2023-06-05T04:41:14;5.65;;;3.47;;
58017;SDS011;43810;50.860;19.226;2023-06-05T04:43:40;5.43;;;3.67;;
58017;SDS011;43810;50.860;19.226;2023-06-05T04:46:06;5.50;;;3.42;;
58017;SDS011;43810;50.860;19.226;2023-06-05T04:48:32;8.60;;;3.47;;
58017;SDS011;43810;50.860;19.226;2023-06-05T04:51:00;3.92;;;2.83;;
58017;SDS011;43810;50.860;19.226;2023-06-05T04:53:26;4.85;;;3.17;;
58017;SDS011;43810;50.860;19.226;2023-06-05T04:55:57;4.43;;;3.03;;
58017;SDS011;43810;50.860;19.226;2023-06-05T04:58:26;5.80;;;2.63;;
58017;SDS011;43810;50.860;19.226;2023-06-05T05:00:52;6.78;;;3.28;;
58017;SDS011;43810;50.860;19.226;2023-06-05T05:03:18;4.03;;;2.95;;
58017;SDS011;43810;50.860;19.226;2023-06-05T05:05:44;7.35;;;3.33;;
58017;SDS011;43810;50.860;19.226;2023-06-05T05:08:10;6.60;;;3.28;;
58017;SDS011;43810;50.860;19.226;2023-06-05T05:10:36;8.10;;;2.92;;
58017;SDS011;43810;50.860;19.226;2023-06-05T05:13:02;5.43;;;2.67;;
58017;SDS011;43810;50.860;19.226;2023-06-05T05:15:28;7.18;;;2.63;;
58017;SDS011;43810;50.860;19.226;2023-06-05T05:17:55;8.85;;;2.97;;
58017;SDS011;43810;50.860;19.226;2023-06-05T05:20:22;4.38;;;2.25;;
58017;SDS011;43810;50.860;19.226;2023-06-05T05:22:48;4.75;;;2.40;;
58017;SDS011;43810;50.860;19.226;2023-06-05T05:25:14;5.57;;;2.15;;
58017;SDS011;43810;50.860;19.226;2023-06-05T05:27:40;5.57;;;2.60;;
58017;SDS011;43810;50.860;19.226;2023-06-05T05:30:07;6.68;;;2.47;;
58017;SDS011;43810;50.860;19.226;2023-06-05T05:32:34;9.75;;;2.25;;
58017;SDS011;43810;50.860;19.226;2023-06-05T05:35:00;3.40;;;2.17;;
58017;SDS011;43810;50.860;19.226;2023-06-05T05:37:25;5.43;;;2.45;;
58017;SDS011;43810;50.860;19.226;2023-06-05T05:39:51;5.25;;;2.63;;
58017;SDS011;43810;50.860;19.226;2023-06-05T05:42:20;3.95;;;2.55;;
58017;SDS011;43810;50.860;19.226;2023-06-05T05:44:46;4.30;;;2.80;;
58017;SDS011;43810;50.860;19.226;2023-06-05T05:47:12;4.32;;;2.25;;
58017;SDS011;43810;50.860;19.226;2023-06-05T05:49:38;5.82;;;2.60;;
58017;SDS011;43810;50.860;19.226;2023-06-05T05:52:04;4.78;;;2.30;;
58017;SDS011;43810;50.860;19.226;2023-06-05T05:54:30;5.40;;;2.30;;
58017;SDS011;43810;50.860;19.226;2023-06-05T05:56:56;4.88;;;2.33;;
58017;SDS011;43810;50.860;19.226;2023-06-05T05:59:22;5.28;;;2.00;;
58017;SDS011;43810;50.860;19.226;2023-06-05T06:01:48;5.65;;;2.75;;
58017;SDS011;43810;50.860;19.226;2023-06-05T06:04:18;5.85;;;2.20;;
58017;SDS011;43810;50.860;19.226;2023-06-05T06:06:44;4.53;;;2.80;;
58017;SDS011;43810;50.860;19.226;2023-06-05T06:09:13;3.08;;;1.88;;
58017;SDS011;43810;50.860;19.226;2023-06-05T06:11:41;2.63;;;1.98;;
58017;SDS011;43810;50.860;19.226;2023-06-05T06:14:08;3.00;;;2.05;;
58017;SDS011;43810;50.860;19.226;2023-06-05T06:16:36;7.05;;;2.58;;
58017;SDS011;43810;50.860;19.226;2023-06-05T06:19:03;4.63;;;2.65;;
58017;SDS011;43810;50.860;19.226;2023-06-05T06:21:29;3.80;;;2.40;;
58017;SDS011;43810;50.860;19.226;2023-06-05T06:23:56;4.18;;;1.65;;
58017;SDS011;43810;50.860;19.226;2023-06-05T06:26:22;6.28;;;2.38;;
58017;SDS011;43810;50.860;19.226;2023-06-05T06:28:49;4.28;;;2.00;;
58017;SDS011;43810;50.860;19.226;2023-06-05T06:31:14;3.92;;;1.85;;
58017;SDS011;43810;50.860;19.226;2023-06-05T06:33:40;3.28;;;1.88;;
58017;SDS011;43810;50.860;19.226;2023-06-05T06:36:06;5.15;;;2.03;;
58017;SDS011;43810;50.860;19.226;2023-06-05T06:38:32;5.40;;;1.52;;
58017;SDS011;43810;50.860;19.226;2023-06-05T06:40:58;3.50;;;1.85;;
58017;SDS011;43810;50.860;19.226;2023-06-05T06:43:24;7.35;;;2.38;;
58017;SDS011;43810;50.860;19.226;2023-06-05T06:45:51;3.63;;;1.60;;
58017;SDS011;43810;50.860;19.226;2023-06-05T06:48:18;2.03;;;1.70;;
58017;SDS011;43810;50.860;19.226;2023-06-05T06:50:44;7.40;;;1.80;;
58017;SDS011;43810;50.860;19.226;2023-06-05T06:53:10;3.60;;;1.77;;
58017;SDS011;43810;50.860;19.226;2023-06-05T06:55:35;3.15;;;2.00;;
58017;SDS011;43810;50.860;19.226;2023-06-05T06:58:02;5.75;;;1.83;;
58017;SDS011;43810;50.860;19.226;2023-06-05T07:00:27;4.82;;;2.00;;
58017;SDS011;43810;50.860;19.226;2023-06-05T07:02:54;4.22;;;1.77;;
58017;SDS011;43810;50.860;19.226;2023-06-05T07:05:19;3.45;;;1.77;;
58017;SDS011;43810;50.860;19.226;2023-06-05T07:07:46;8.85;;;2.33;;
58017;SDS011;43810;50.860;19.226;2023-06-05T07:10:12;3.35;;;1.80;;
58017;SDS011;43810;50.860;19.226;2023-06-05T07:12:38;2.80;;;2.10;;
58017;SDS011;43810;50.860;19.226;2023-06-05T07:15:04;3.03;;;2.00;;
58017;SDS011;43810;50.860;19.226;2023-06-05T07:17:30;4.90;;;1.80;;
58017;SDS011;43810;50.860;19.226;2023-06-05T07:19:56;4.25;;;1.85;;
58017;SDS011;43810;50.860;19.226;2023-06-05T07:22:22;22.70;;;2.90;;
58017;SDS011;43810;50.860;19.226;2023-06-05T07:24:53;2.78;;;1.90;;
58017;SDS011;43810;50.860;19.226;2023-06-05T07:27:19;5.88;;;2.30;;
58017;SDS011;43810;50.860;19.226;2023-06-05T07:29:48;4.75;;;2.03;;
58017;SDS011;43810;50.860;19.226;2023-06-05T07:32:14;2.72;;;1.60;;
58017;SDS011;43810;50.860;19.226;2023-06-05T07:34:40;19.45;;;2.67;;
58017;SDS011;43810;50.860;19.226;2023-06-05T07:37:08;8.40;;;2.53;;
58017;SDS011;43810;50.860;19.226;2023-06-05T07:39:34;5.47;;;2.03;;
58017;SDS011;43810;50.860;19.226;2023-06-05T07:42:00;3.70;;;1.80;;
58017;SDS011;43810;50.860;19.226;2023-06-05T07:44:25;5.50;;;1.55;;
58017;SDS011;43810;50.860;19.226;2023-06-05T07:46:52;3.72;;;1.73;;
58017;SDS011;43810;50.860;19.226;2023-06-05T07:49:17;3.08;;;1.70;;
58017;SDS011;43810;50.860;19.226;2023-06-05T07:51:44;2.97;;;1.92;;
58017;SDS011;43810;50.860;19.226;2023-06-05T07:54:13;3.53;;;2.00;;
58017;SDS011;43810;50.860;19.226;2023-06-05T07:56:41;3.95;;;1.70;;
58017;SDS011;43810;50.860;19.226;2023-06-05T07:59:07;4.97;;;1.80;;
58017;SDS011;43810;50.860;19.226;2023-06-05T08:01:33;5.30;;;1.80;;
58017;SDS011;43810;50.860;19.226;2023-06-05T08:04:03;2.55;;;1.48;;
58017;SDS011;43810;50.860;19.226;2023-06-05T08:06:30;3.78;;;1.85;;
58017;SDS011;43810;50.860;19.226;2023-06-05T08:08:58;3.03;;;1.75;;
58017;SDS011;43810;50.860;19.226;2023-06-05T08:11:25;4.90;;;2.17;;
58017;SDS011;43810;50.860;19.226;2023-06-05T08:13:51;2.13;;;1.70;;
58017;SDS011;43810;50.860;19.226;2023-06-05T08:16:17;2.97;;;1.77;;
58017;SDS011;43810;50.860;19.226;2023-06-05T08:18:43;4.28;;;1.65;;
58017;SDS011;43810;50.860;19.226;2023-06-05T08:21:09;3.05;;;1.52;;
58017;SDS011;43810;50.860;19.226;2023-06-05T08:23:36;5.13;;;1.90;;
58017;SDS011;43810;50.860;19.226;2023-06-05T08:26:02;2.00;;;1.42;;
58017;SDS011;43810;50.860;19.226;2023-06-05T08:28:35;3.58;;;1.50;;
58017;SDS011;43810;50.860;19.226;2023-06-05T08:31:01;2.20;;;1.10;;
58017;SDS011;43810;50.860;19.226;2023-06-05T08:33:27;1.33;;;1.17;;
58017;SDS011;43810;50.860;19.226;2023-06-05T08:35:53;2.58;;;1.20;;
58017;SDS011;43810;50.860;19.226;2023-06-05T08:38:19;3.60;;;1.20;;
58017;SDS011;43810;50.860;19.226;2023-06-05T08:40:45;3.65;;;0.98;;
58017;SDS011;43810;50.860;19.226;2023-06-05T08:43:15;3.28;;;0.90;;
58017;SDS011;43810;50.860;19.226;2023-06-05T08:45:41;2.47;;;1.10;;
58017;SDS011;43810;50.860;19.226;2023-06-05T08:48:07;2.42;;;1.00;;
58017;SDS011;43810;50.860;19.226;2023-06-05T08:50:36;5.10;;;1.23;;
58017;SDS011;43810;50.860;19.226;2023-06-05T08:53:03;2.42;;;1.02;;
58017;SDS011;43810;50.860;19.226;2023-06-05T08:55:29;2.00;;;1.42;;
58017;SDS011;43810;50.860;19.226;2023-06-05T08:57:55;3.83;;;1.35;;
58017;SDS011;43810;50.860;19.226;2023-06-05T09:00:21;2.70;;;1.10;;
58017;SDS011;43810;50.860;19.226;2023-06-05T09:02:47;1.65;;;1.52;;
58017;SDS011;43810;50.860;19.226;2023-06-05T09:05:14;2.28;;;1.20;;
58017;SDS011;43810;50.860;19.226;2023-06-05T09:07:42;3.90;;;1.27;;
58017;SDS011;43810;50.860;19.226;2023-06-05T09:10:27;1.50;;;1.20;;
58017;SDS011;43810;50.860;19.226;2023-06-05T09:12:58;2.97;;;1.42;;
58017;SDS011;43810;50.860;19.226;2023-06-05T09:15:29;3.50;;;1.00;;
58017;SDS011;43810;50.860;19.226;2023-06-05T09:18:09;2.75;;;1.40;;
58017;SDS011;43810;50.860;19.226;2023-06-05T09:20:37;1.73;;;1.20;;
58017;SDS011;43810;50.860;19.226;2023-06-05T09:23:26;1.65;;;1.20;;
58017;SDS011;43810;50.860;19.226;2023-06-05T09:25:54;1.67;;;1.10;;
58017;SDS011;43810;50.860;19.226;2023-06-05T09:28:23;5.05;;;1.58;;
58017;SDS011;43810;50.860;19.226;2023-06-05T09:30:55;3.80;;;0.98;;
58017;SDS011;43810;50.860;19.226;2023-06-05T09:33:29;2.17;;;1.10;;
58017;SDS011;43810;50.860;19.226;2023-06-05T09:36:17;1.05;;;0.95;;
58017;SDS011;43810;50.860;19.226;2023-06-05T09:38:42;4.40;;;1.10;;
58017;SDS011;43810;50.860;19.226;2023-06-05T09:41:11;1.67;;;1.35;;
58017;SDS011;43810;50.860;19.226;2023-06-05T09:43:39;1.20;;;1.10;;
58017;SDS011;43810;50.860;19.226;2023-06-05T09:46:12;1.80;;;1.05;;
58017;SDS011;43810;50.860;19.226;2023-06-05T09:48:39;1.75;;;1.40;;
58017;SDS011;43810;50.860;19.226;2023-06-05T09:51:10;2.95;;;1.40;;
58017;SDS011;43810;50.860;19.226;2023-06-05T09:53:40;3.00;;;1.30;;
58017;SDS011;43810;50.860;19.226;2023-06-05T09:58:38;1.63;;;1.10;;
58017;SDS011;43810;50.860;19.226;2023-06-05T10:01:10;2.25;;;1.35;;
58017;SDS011;43810;50.860;19.226;2023-06-05T10:03:38;1.90;;;1.35;;
58017;SDS011;43810;50.860;19.226;2023-06-05T10:06:08;1.23;;;1.13;;
58017;SDS011;43810;50.860;19.226;2023-06-05T10:08:34;1.65;;;1.40;;
58017;SDS011;43810;50.860;19.226;2023-06-05T10:11:01;1.63;;;1.17;;
58017;SDS011;43810;50.860;19.226;2023-06-05T10:13:27;2.42;;;1.30;;
58017;SDS011;43810;50.860;19.226;2023-06-05T10:15:54;6.93;;;1.50;;
58017;SDS011;43810;50.860;19.226;2023-06-05T10:18:21;3.10;;;1.52;;
58017;SDS011;43810;50.860;19.226;2023-06-05T10:20:48;3.72;;;1.27;;
58017;SDS011;43810;50.860;19.226;2023-06-05T10:23:17;2.05;;;1.35;;
58017;SDS011;43810;50.860;19.226;2023-06-05T10:25:45;6.18;;;1.35;;
58017;SDS011;43810;50.860;19.226;2023-06-05T10:31:05;2.40;;;1.25;;
58017;SDS011;43810;50.860;19.226;2023-06-05T10:33:58;1.98;;;1.20;;
58017;SDS011;43810;50.860;19.226;2023-06-05T10:39:10;7.50;;;1.50;;
58017;SDS011;43810;50.860;19.226;2023-06-05T10:41:37;4.53;;;1.75;;
58017;SDS011;43810;50.860;19.226;2023-06-05T10:44:04;2.83;;;1.30;;
58017;SDS011;43810;50.860;19.226;2023-06-05T10:46:34;2.80;;;1.38;;
58017;SDS011;43810;50.860;19.226;2023-06-05T10:49:13;4.80;;;1.63;;
58017;SDS011;43810;50.860;19.226;2023-06-05T10:51:45;2.80;;;1.40;;
58017;SDS011;43810;50.860;19.226;2023-06-05T10:54:13;3.40;;;1.30;;
58017;SDS011;43810;50.860;19.226;2023-06-05T10:59:25;4.45;;;1.70;;
58017;SDS011;43810;50.860;19.226;2023-06-05T11:15:06;2.33;;;1.50;;
58017;SDS011;43810;50.860;19.226;2023-06-05T11:17:34;3.78;;;1.50;;
58017;SDS011;43810;50.860;19.226;2023-06-05T11:20:05;3.08;;;1.48;;
58017;SDS011;43810;50.860;19.226;2023-06-05T11:27:51;2.83;;;1.25;;
58017;SDS011;43810;50.860;19.226;2023-06-05T11:30:24;2.13;;;1.50;;
58017;SDS011;43810;50.860;19.226;2023-06-05T11:32:54;3.28;;;1.50;;
58017;SDS011;43810;50.860;19.226;2023-06-05T11:35:26;3.30;;;1.33;;
58017;SDS011;43810;50.860;19.226;2023-06-05T11:38:08;5.32;;;1.42;;
58017;SDS011;43810;50.860;19.226;2023-06-05T11:40:41;3.45;;;1.50;;
58017;SDS011;43810;50.860;19.226;2023-06-05T11:43:09;4.43;;;1.60;;
58017;SDS011;43810;50.860;19.226;2023-06-05T11:45:37;2.60;;;1.13;;
58017;SDS011;43810;50.860;19.226;2023-06-05T11:48:11;1.92;;;1.30;;
58017;SDS011;43810;50.860;19.226;2023-06-05T11:50:39;3.83;;;1.42;;
58017;SDS011;43810;50.860;19.226;2023-06-05T11:53:17;2.88;;;1.55;;
58017;SDS011;43810;50.860;19.226;2023-06-05T11:55:43;3.03;;;1.60;;
58017;SDS011;43810;50.860;19.226;2023-06-05T12:00:48;8.52;;;1.77;;
58017;SDS011;43810;50.860;19.226;2023-06-05T12:03:20;3.00;;;1.33;;
58017;SDS011;43810;50.860;19.226;2023-06-05T12:05:47;4.90;;;1.40;;
58017;SDS011;43810;50.860;19.226;2023-06-05T12:08:27;4.78;;;2.00;;
58017;SDS011;43810;50.860;19.226;2023-06-05T12:11:03;1.63;;;1.33;;
58017;SDS011;43810;50.860;19.226;2023-06-05T12:13:49;2.67;;;1.38;;
58017;SDS011;43810;50.860;19.226;2023-06-05T12:16:16;1.45;;;1.35;;
58017;SDS011;43810;50.860;19.226;2023-06-05T12:18:44;1.98;;;1.50;;
58017;SDS011;43810;50.860;19.226;2023-06-05T12:21:20;2.58;;;1.50;;
58017;SDS011;43810;50.860;19.226;2023-06-05T12:23:50;3.80;;;2.00;;
58017;SDS011;43810;50.860;19.226;2023-06-05T12:26:16;5.50;;;1.88;;
58017;SDS011;43810;50.860;19.226;2023-06-05T12:28:43;1.88;;;1.63;;
58017;SDS011;43810;50.860;19.226;2023-06-05T12:31:55;4.63;;;1.73;;
58017;SDS011;43810;50.860;19.226;2023-06-05T12:34:01;4.45;;;1.80;;
58017;SDS011;43810;50.860;19.226;2023-06-05T12:36:28;4.68;;;1.42;;
58017;SDS011;43810;50.860;19.226;2023-06-05T12:38:54;2.83;;;1.50;;
58017;SDS011;43810;50.860;19.226;2023-06-05T12:41:21;2.92;;;1.40;;
58017;SDS011;43810;50.860;19.226;2023-06-05T12:43:57;2.47;;;1.40;;
58017;SDS011;43810;50.860;19.226;2023-06-05T12:46:24;1.70;;;1.55;;
58017;SDS011;43810;50.860;19.226;2023-06-05T12:48:50;4.38;;;1.60;;
58017;SDS011;43810;50.860;19.226;2023-06-05T12:51:17;4.65;;;1.70;;
58017;SDS011;43810;50.860;19.226;2023-06-05T12:53:43;3.75;;;1.45;;
58017;SDS011;43810;50.860;19.226;2023-06-05T12:56:09;2.63;;;1.67;;
58017;SDS011;43810;50.860;19.226;2023-06-05T12:58:36;5.13;;;1.60;;
58017;SDS011;43810;50.860;19.226;2023-06-05T13:01:02;2.88;;;1.42;;
58017;SDS011;43810;50.860;19.226;2023-06-05T13:03:29;2.78;;;1.70;;
58017;SDS011;43810;50.860;19.226;2023-06-05T13:05:55;3.58;;;1.85;;
58017;SDS011;43810;50.860;19.226;2023-06-05T13:08:21;4.20;;;1.63;;
58017;SDS011;43810;50.860;19.226;2023-06-05T13:10:46;2.90;;;1.52;;
58017;SDS011;43810;50.860;19.226;2023-06-05T13:13:12;3.10;;;1.70;;
58017;SDS011;43810;50.860;19.226;2023-06-05T13:15:39;1.63;;;1.45;;
58017;SDS011;43810;50.860;19.226;2023-06-05T13:18:05;3.08;;;1.58;;
58017;SDS011;43810;50.860;19.226;2023-06-05T13:20:33;3.30;;;1.60;;
58017;SDS011;43810;50.860;19.226;2023-06-05T13:22:59;1.70;;;1.38;;
58017;SDS011;43810;50.860;19.226;2023-06-05T13:25:25;2.35;;;1.20;;
58017;SDS011;43810;50.860;19.226;2023-06-05T13:27:51;1.55;;;1.17;;
58017;SDS011;43810;50.860;19.226;2023-06-05T13:30:16;2.65;;;1.40;;
58017;SDS011;43810;50.860;19.226;2023-06-05T13:32:42;4.68;;;1.65;;
58017;SDS011;43810;50.860;19.226;2023-06-05T13:35:09;4.68;;;1.73;;
58017;SDS011;43810;50.860;19.226;2023-06-05T13:37:37;2.72;;;1.33;;
58017;SDS011;43810;50.860;19.226;2023-06-05T13:40:03;2.10;;;1.90;;
58017;SDS011;43810;50.860;19.226;2023-06-05T13:42:35;8.93;;;1.60;;
58017;SDS011;43810;50.860;19.226;2023-06-05T13:45:03;6.60;;;1.90;;
58017;SDS011;43810;50.860;19.226;2023-06-05T13:47:29;2.20;;;1.40;;
58017;SDS011;43810;50.860;19.226;2023-06-05T13:49:56;3.40;;;1.52;;
58017;SDS011;43810;50.860;19.226;2023-06-05T13:52:23;4.93;;;1.65;;
58017;SDS011;43810;50.860;19.226;2023-06-05T13:54:49;5.30;;;1.77;;
58017;SDS011;43810;50.860;19.226;2023-06-05T13:57:15;2.03;;;1.33;;
58017;SDS011;43810;50.860;19.226;2023-06-05T13:59:42;3.13;;;1.55;;
58017;SDS011;43810;50.860;19.226;2023-06-05T14:02:10;1.48;;;1.25;;
58017;SDS011;43810;50.860;19.226;2023-06-05T14:04:36;2.65;;;1.42;;
58017;SDS011;43810;50.860;19.226;2023-06-05T14:07:03;2.00;;;1.77;;
58017;SDS011;43810;50.860;19.226;2023-06-05T14:09:29;3.75;;;1.75;;
58017;SDS011;43810;50.860;19.226;2023-06-05T14:11:56;3.83;;;1.52;;
58017;SDS011;43810;50.860;19.226;2023-06-05T14:14:22;2.55;;;1.80;;
58017;SDS011;43810;50.860;19.226;2023-06-05T14:16:49;2.75;;;1.55;;
58017;SDS011;43810;50.860;19.226;2023-06-05T14:19:16;3.15;;;1.60;;
58017;SDS011;43810;50.860;19.226;2023-06-05T14:21:43;2.85;;;1.67;;
58017;SDS011;43810;50.860;19.226;2023-06-05T14:24:09;2.17;;;1.20;;
58017;SDS011;43810;50.860;19.226;2023-06-05T14:26:35;1.90;;;1.50;;
58017;SDS011;43810;50.860;19.226;2023-06-05T14:29:02;2.67;;;1.42;;
58017;SDS011;43810;50.860;19.226;2023-06-05T14:31:28;2.38;;;1.42;;
58017;SDS011;43810;50.860;19.226;2023-06-05T14:33:54;3.58;;;1.50;;
58017;SDS011;43810;50.860;19.226;2023-06-05T14:36:20;18.73;;;2.33;;
58017;SDS011;43810;50.860;19.226;2023-06-05T14:38:46;3.05;;;1.55;;
58017;SDS011;43810;50.860;19.226;2023-06-05T14:41:12;4.22;;;1.60;;
58017;SDS011;43810;50.860;19.226;2023-06-05T14:43:37;1.80;;;1.55;;
58017;SDS011;43810;50.860;19.226;2023-06-05T14:46:03;1.77;;;1.58;;
58017;SDS011;43810;50.860;19.226;2023-06-05T14:48:30;2.30;;;1.45;;
58017;SDS011;43810;50.860;19.226;2023-06-05T14:50:56;2.53;;;1.30;;
58017;SDS011;43810;50.860;19.226;2023-06-05T14:53:23;3.10;;;1.75;;
58017;SDS011;43810;50.860;19.226;2023-06-05T14:55:50;4.35;;;1.50;;
58017;SDS011;43810;50.860;19.226;2023-06-05T14:58:16;3.63;;;1.83;;
58017;SDS011;43810;50.860;19.226;2023-06-05T15:00:42;2.35;;;1.40;;
58017;SDS011;43810;50.860;19.226;2023-06-05T15:03:08;5.40;;;2.05;;
58017;SDS011;43810;50.860;19.226;2023-06-05T15:05:34;2.67;;;1.65;;
58017;SDS011;43810;50.860;19.226;2023-06-05T15:08:00;2.58;;;1.30;;
58017;SDS011;43810;50.860;19.226;2023-06-05T15:10:26;2.60;;;1.33;;
58017;SDS011;43810;50.860;19.226;2023-06-05T15:12:52;3.22;;;1.80;;
58017;SDS011;43810;50.860;19.226;2023-06-05T15:15:23;4.07;;;1.85;;
58017;SDS011;43810;50.860;19.226;2023-06-05T15:17:49;1.58;;;1.45;;